sensor_id;sensor_type;location;lat;lon;timestamp;P1;durP1;ratioP1;P2;durP2;ratioP2
16820;SDS011;8527;49.740;6.604;2023-02-03T00:01:28;3.60;;;2.58;;
16820;SDS011;8527;49.740;6.604;2023-02-03T00:06:35;4.50;;;2.60;;
16820;SDS011;8527;49.740;6.604;2023-02-03T00:11:42;5.10;;;3.00;;
16820;SDS011;8527;49.740;6.604;2023-02-03T00:16:49;3.15;;;2.70;;
16820;SDS011;8527;49.740;6.604;2023-02-03T00:21:50;5.47;;;2.65;;
16820;SDS011;8527;49.740;6.604;2023-02-03T00:26:49;3.63;;;3.22;;
16820;SDS011;8527;49.740;6.604;2023-02-03T00:31:50;4.00;;;3.00;;
16820;SDS011;8527;49.740;6.604;2023-02-03T00:36:52;6.00;;;3.33;;
16820;SDS011;8527;49.740;6.604;2023-02-03T00:41:50;6.13;;;3.22;;
16820;SDS011;8527;49.740;6.604;2023-02-03T00:46:48;5.18;;;3.80;;
16820;SDS011;8527;49.740;6.604;2023-02-03T00:51:47;4.50;;;3.80;;
16820;SDS011;8527;49.740;6.604;2023-02-03T00:56:48;4.93;;;3.88;;
16820;SDS011;8527;49.740;6.604;2023-02-03T01:06:53;4.55;;;3.17;;
16820;SDS011;8527;49.740;6.604;2023-02-03T01:11:56;5.45;;;3.58;;
16820;SDS011;8527;49.740;6.604;2023-02-03T01:16:58;3.50;;;3.20;;
16820;SDS011;8527;49.740;6.604;2023-02-03T01:21:57;6.25;;;3.92;;
16820;SDS011;8527;49.740;6.604;2023-02-03T01:27:04;6.70;;;4.18;;
16820;SDS011;8527;49.740;6.604;2023-02-03T01:32:05;10.15;;;4.70;;
16820;SDS011;8527;49.740;6.604;2023-02-03T01:37:03;8.43;;;4.65;;
16820;SDS011;8527;49.740;6.604;2023-02-03T01:42:07;6.47;;;4.40;;
16820;SDS011;8527;49.740;6.604;2023-02-03T01:47:14;9.02;;;4.38;;
16820;SDS011;8527;49.740;6.604;2023-02-03T01:52:15;11.25;;;4.70;;
16820;SDS011;8527;49.740;6.604;2023-02-03T01:57:21;7.00;;;4.18;;
16820;SDS011;8527;49.740;6.604;2023-02-03T02:02:29;7.47;;;4.20;;
16820;SDS011;8527;49.740;6.604;2023-02-03T02:07:29;7.20;;;4.38;;
16820;SDS011;8527;49.740;6.604;2023-02-03T02:12:32;6.10;;;3.80;;
16820;SDS011;8527;49.740;6.604;2023-02-03T02:17:37;5.68;;;4.10;;
16820;SDS011;8527;49.740;6.604;2023-02-03T02:23:01;5.75;;;3.90;;
16820;SDS011;8527;49.740;6.604;2023-02-03T02:34:06;6.38;;;4.10;;
16820;SDS011;8527;49.740;6.604;2023-02-03T02:39:11;6.85;;;4.80;;
16820;SDS011;8527;49.740;6.604;2023-02-03T02:44:20;8.82;;;4.07;;
16820;SDS011;8527;49.740;6.604;2023-02-03T02:49:30;6.35;;;4.13;;
16820;SDS011;8527;49.740;6.604;2023-02-03T02:54:39;9.32;;;4.40;;
16820;SDS011;8527;49.740;6.604;2023-02-03T02:59:45;4.60;;;4.10;;
16820;SDS011;8527;49.740;6.604;2023-02-03T03:04:50;9.00;;;3.92;;
16820;SDS011;8527;49.740;6.604;2023-02-03T03:09:49;11.88;;;4.25;;
16820;SDS011;8527;49.740;6.604;2023-02-03T03:14:52;6.22;;;4.45;;
16820;SDS011;8527;49.740;6.604;2023-02-03T03:19:59;5.25;;;4.47;;
16820;SDS011;8527;49.740;6.604;2023-02-03T03:25:04;7.97;;;4.55;;
16820;SDS011;8527;49.740;6.604;2023-02-03T03:30:09;6.75;;;4.70;;
16820;SDS011;8527;49.740;6.604;2023-02-03T03:35:18;10.43;;;5.68;;
16820;SDS011;8527;49.740;6.604;2023-02-03T03:40:19;6.40;;;4.93;;
16820;SDS011;8527;49.740;6.604;2023-02-03T03:45:21;6.72;;;4.70;;
16820;SDS011;8527;49.740;6.604;2023-02-03T03:50:27;9.02;;;4.80;;
16820;SDS011;8527;49.740;6.604;2023-02-03T03:55:29;9.85;;;4.70;;
16820;SDS011;8527;49.740;6.604;2023-02-03T04:00:32;6.88;;;4.25;;
16820;SDS011;8527;49.740;6.604;2023-02-03T04:05:36;8.48;;;4.68;;
16820;SDS011;8527;49.740;6.604;2023-02-03T04:10:36;8.82;;;4.32;;
16820;SDS011;8527;49.740;6.604;2023-02-03T04:15:37;6.57;;;4.20;;
16820;SDS011;8527;49.740;6.604;2023-02-03T04:20:41;6.38;;;3.83;;
16820;SDS011;8527;49.740;6.604;2023-02-03T04:25:42;6.55;;;3.60;;
16820;SDS011;8527;49.740;6.604;2023-02-03T04:30:45;8.75;;;4.15;;
16820;SDS011;8527;49.740;6.604;2023-02-03T04:35:48;9.13;;;4.30;;
16820;SDS011;8527;49.740;6.604;2023-02-03T04:40:53;9.10;;;3.65;;
16820;SDS011;8527;49.740;6.604;2023-02-03T04:45:52;10.02;;;4.43;;
16820;SDS011;8527;49.740;6.604;2023-02-03T04:50:59;7.00;;;4.20;;
16820;SDS011;8527;49.740;6.604;2023-02-03T04:55:59;8.57;;;4.18;;
16820;SDS011;8527;49.740;6.604;2023-02-03T05:01:04;11.88;;;4.47;;
16820;SDS011;8527;49.740;6.604;2023-02-03T05:06:12;13.75;;;5.60;;
16820;SDS011;8527;49.740;6.604;2023-02-03T05:11:18;10.68;;;5.30;;
16820;SDS011;8527;49.740;6.604;2023-02-03T05:16:17;7.22;;;4.53;;
16820;SDS011;8527;49.740;6.604;2023-02-03T05:21:18;10.00;;;5.30;;
16820;SDS011;8527;49.740;6.604;2023-02-03T05:26:25;9.23;;;5.85;;
16820;SDS011;8527;49.740;6.604;2023-02-03T05:31:23;11.95;;;5.60;;
16820;SDS011;8527;49.740;6.604;2023-02-03T05:36:24;17.83;;;5.07;;
16820;SDS011;8527;49.740;6.604;2023-02-03T05:41:24;7.57;;;4.57;;
16820;SDS011;8527;49.740;6.604;2023-02-03T05:46:35;8.05;;;4.78;;
16820;SDS011;8527;49.740;6.604;2023-02-03T05:51:38;8.18;;;5.03;;
16820;SDS011;8527;49.740;6.604;2023-02-03T05:56:37;7.15;;;4.10;;
16820;SDS011;8527;49.740;6.604;2023-02-03T06:01:36;5.88;;;3.72;;
16820;SDS011;8527;49.740;6.604;2023-02-03T06:06:42;8.63;;;4.07;;
16820;SDS011;8527;49.740;6.604;2023-02-03T06:11:42;7.93;;;4.10;;
16820;SDS011;8527;49.740;6.604;2023-02-03T06:16:41;4.15;;;3.55;;
16820;SDS011;8527;49.740;6.604;2023-02-03T06:21:42;7.18;;;3.60;;
16820;SDS011;8527;49.740;6.604;2023-02-03T06:26:40;5.18;;;3.60;;
16820;SDS011;8527;49.740;6.604;2023-02-03T06:31:38;6.15;;;3.40;;
16820;SDS011;8527;49.740;6.604;2023-02-03T06:36:37;6.20;;;3.10;;
16820;SDS011;8527;49.740;6.604;2023-02-03T06:41:38;6.97;;;3.35;;
16820;SDS011;8527;49.740;6.604;2023-02-03T06:46:36;5.45;;;3.50;;
16820;SDS011;8527;49.740;6.604;2023-02-03T06:51:35;4.22;;;3.15;;
16820;SDS011;8527;49.740;6.604;2023-02-03T06:56:33;5.13;;;3.20;;
16820;SDS011;8527;49.740;6.604;2023-02-03T07:01:38;4.80;;;3.00;;
16820;SDS011;8527;49.740;6.604;2023-02-03T07:06:39;5.10;;;3.08;;
16820;SDS011;8527;49.740;6.604;2023-02-03T07:11:37;4.82;;;3.35;;
16820;SDS011;8527;49.740;6.604;2023-02-03T07:16:38;3.88;;;3.05;;
16820;SDS011;8527;49.740;6.604;2023-02-03T07:21:41;5.78;;;3.30;;
16820;SDS011;8527;49.740;6.604;2023-02-03T07:26:44;5.25;;;2.80;;
16820;SDS011;8527;49.740;6.604;2023-02-03T07:31:44;3.63;;;2.90;;
16820;SDS011;8527;49.740;6.604;2023-02-03T07:36:43;3.60;;;2.85;;
16820;SDS011;8527;49.740;6.604;2023-02-03T07:41:41;4.82;;;3.28;;
16820;SDS011;8527;49.740;6.604;2023-02-03T07:46:39;5.53;;;3.58;;
16820;SDS011;8527;49.740;6.604;2023-02-03T07:51:41;10.15;;;4.95;;
16820;SDS011;8527;49.740;6.604;2023-02-03T07:56:40;7.47;;;4.38;;
16820;SDS011;8527;49.740;6.604;2023-02-03T08:01:40;7.50;;;4.82;;
16820;SDS011;8527;49.740;6.604;2023-02-03T08:06:41;11.32;;;4.55;;
16820;SDS011;8527;49.740;6.604;2023-02-03T08:11:40;6.60;;;4.70;;
16820;SDS011;8527;49.740;6.604;2023-02-03T08:16:38;5.95;;;4.07;;
16820;SDS011;8527;49.740;6.604;2023-02-03T08:21:37;5.30;;;3.60;;
16820;SDS011;8527;49.740;6.604;2023-02-03T08:26:41;4.45;;;3.65;;
16820;SDS011;8527;49.740;6.604;2023-02-03T08:31:40;5.40;;;3.42;;
16820;SDS011;8527;49.740;6.604;2023-02-03T08:36:38;3.65;;;3.00;;
16820;SDS011;8527;49.740;6.604;2023-02-03T08:41:43;4.10;;;2.70;;
16820;SDS011;8527;49.740;6.604;2023-02-03T08:46:41;3.40;;;2.55;;
16820;SDS011;8527;49.740;6.604;2023-02-03T08:51:39;5.03;;;2.22;;
16820;SDS011;8527;49.740;6.604;2023-02-03T08:56:43;3.25;;;2.20;;
16820;SDS011;8527;49.740;6.604;2023-02-03T09:01:42;3.88;;;2.60;;
16820;SDS011;8527;49.740;6.604;2023-02-03T09:06:42;2.75;;;2.15;;
16820;SDS011;8527;49.740;6.604;2023-02-03T09:11:44;6.20;;;2.22;;
16820;SDS011;8527;49.740;6.604;2023-02-03T09:16:43;4.68;;;2.10;;
16820;SDS011;8527;49.740;6.604;2023-02-03T09:21:50;2.75;;;2.40;;
16820;SDS011;8527;49.740;6.604;2023-02-03T09:26:51;2.08;;;1.92;;
16820;SDS011;8527;49.740;6.604;2023-02-03T09:31:50;4.93;;;1.90;;
16820;SDS011;8527;49.740;6.604;2023-02-03T09:36:49;2.60;;;1.80;;
16820;SDS011;8527;49.740;6.604;2023-02-03T09:41:59;3.42;;;2.47;;
16820;SDS011;8527;49.740;6.604;2023-02-03T09:47:08;3.20;;;2.60;;
16820;SDS011;8527;49.740;6.604;2023-02-03T09:52:13;3.27;;;2.53;;
16820;SDS011;8527;49.740;6.604;2023-02-03T09:57:18;4.70;;;2.30;;
16820;SDS011;8527;49.740;6.604;2023-02-03T10:02:22;3.13;;;1.67;;
16820;SDS011;8527;49.740;6.604;2023-02-03T10:07:32;5.75;;;2.53;;
16820;SDS011;8527;49.740;6.604;2023-02-03T10:12:42;6.38;;;2.10;;
16820;SDS011;8527;49.740;6.604;2023-02-03T10:17:51;6.00;;;2.13;;
16820;SDS011;8527;49.740;6.604;2023-02-03T10:22:53;1.98;;;1.52;;
16820;SDS011;8527;49.740;6.604;2023-02-03T10:28:02;1.60;;;1.08;;
16820;SDS011;8527;49.740;6.604;2023-02-03T10:33:10;1.27;;;1.08;;
16820;SDS011;8527;49.740;6.604;2023-02-03T10:38:13;3.90;;;1.77;;
16820;SDS011;8527;49.740;6.604;2023-02-03T10:43:27;0.82;;;0.82;;
16820;SDS011;8527;49.740;6.604;2023-02-03T10:48:41;2.42;;;1.05;;
16820;SDS011;8527;49.740;6.604;2023-02-03T10:53:39;0.93;;;0.70;;
16820;SDS011;8527;49.740;6.604;2023-02-03T10:58:46;0.63;;;0.57;;
16820;SDS011;8527;49.740;6.604;2023-02-03T11:03:55;0.63;;;0.60;;
16820;SDS011;8527;49.740;6.604;2023-02-03T11:08:56;0.75;;;0.75;;
16820;SDS011;8527;49.740;6.604;2023-02-03T11:14:09;1.33;;;0.73;;
16820;SDS011;8527;49.740;6.604;2023-02-03T11:19:12;1.00;;;0.50;;
16820;SDS011;8527;49.740;6.604;2023-02-03T11:24:17;1.17;;;0.50;;
16820;SDS011;8527;49.740;6.604;2023-02-03T11:29:21;0.40;;;0.40;;
16820;SDS011;8527;49.740;6.604;2023-02-03T11:34:26;1.45;;;1.00;;
16820;SDS011;8527;49.740;6.604;2023-02-03T11:39:27;0.73;;;0.55;;
16820;SDS011;8527;49.740;6.604;2023-02-03T11:44:32;1.10;;;0.95;;
16820;SDS011;8527;49.740;6.604;2023-02-03T11:54:53;0.50;;;0.50;;
16820;SDS011;8527;49.740;6.604;2023-02-03T12:00:10;1.58;;;0.75;;
16820;SDS011;8527;49.740;6.604;2023-02-03T12:10:43;1.02;;;0.55;;
16820;SDS011;8527;49.740;6.604;2023-02-03T12:15:58;0.73;;;0.45;;
16820;SDS011;8527;49.740;6.604;2023-02-03T12:21:16;2.60;;;0.60;;
16820;SDS011;8527;49.740;6.604;2023-02-03T12:26:29;3.13;;;0.70;;
16820;SDS011;8527;49.740;6.604;2023-02-03T12:36:41;0.50;;;0.50;;
16820;SDS011;8527;49.740;6.604;2023-02-03T12:41:48;1.80;;;0.80;;
16820;SDS011;8527;49.740;6.604;2023-02-03T12:46:59;1.00;;;0.90;;
16820;SDS011;8527;49.740;6.604;2023-02-03T12:52:02;1.97;;;1.40;;
16820;SDS011;8527;49.740;6.604;2023-02-03T12:57:11;3.20;;;0.80;;
16820;SDS011;8527;49.740;6.604;2023-02-03T13:02:23;2.58;;;0.93;;
16820;SDS011;8527;49.740;6.604;2023-02-03T13:07:26;1.92;;;0.80;;
16820;SDS011;8527;49.740;6.604;2023-02-03T13:12:30;1.58;;;0.80;;
16820;SDS011;8527;49.740;6.604;2023-02-03T13:17:39;1.90;;;1.13;;
16820;SDS011;8527;49.740;6.604;2023-02-03T13:22:43;1.90;;;1.00;;
16820;SDS011;8527;49.740;6.604;2023-02-03T13:27:42;2.08;;;1.08;;
16820;SDS011;8527;49.740;6.604;2023-02-03T13:32:54;2.70;;;0.73;;
16820;SDS011;8527;49.740;6.604;2023-02-03T13:43:54;1.85;;;0.80;;
16820;SDS011;8527;49.740;6.604;2023-02-03T13:48:58;1.58;;;1.08;;
16820;SDS011;8527;49.740;6.604;2023-02-03T13:53:59;1.98;;;1.25;;
16820;SDS011;8527;49.740;6.604;2023-02-03T13:59:02;1.10;;;0.85;;
16820;SDS011;8527;49.740;6.604;2023-02-03T14:04:06;2.40;;;1.10;;
16820;SDS011;8527;49.740;6.604;2023-02-03T14:09:17;1.05;;;0.90;;
16820;SDS011;8527;49.740;6.604;2023-02-03T14:19:54;3.20;;;0.93;;
16820;SDS011;8527;49.740;6.604;2023-02-03T14:24:53;3.20;;;1.15;;
16820;SDS011;8527;49.740;6.604;2023-02-03T14:30:05;3.58;;;1.23;;
16820;SDS011;8527;49.740;6.604;2023-02-03T14:35:11;5.00;;;1.88;;
16820;SDS011;8527;49.740;6.604;2023-02-03T14:40:20;2.80;;;1.75;;
16820;SDS011;8527;49.740;6.604;2023-02-03T14:45:30;1.70;;;1.40;;
16820;SDS011;8527;49.740;6.604;2023-02-03T14:50:46;1.52;;;1.42;;
16820;SDS011;8527;49.740;6.604;2023-02-03T14:55:57;1.67;;;1.50;;
16820;SDS011;8527;49.740;6.604;2023-02-03T15:01:11;2.35;;;1.25;;
16820;SDS011;8527;49.740;6.604;2023-02-03T15:06:38;1.05;;;0.90;;
16820;SDS011;8527;49.740;6.604;2023-02-03T15:11:41;1.55;;;1.45;;
16820;SDS011;8527;49.740;6.604;2023-02-03T15:16:42;2.42;;;1.80;;
16820;SDS011;8527;49.740;6.604;2023-02-03T15:21:43;2.28;;;1.70;;
16820;SDS011;8527;49.740;6.604;2023-02-03T15:26:45;1.20;;;1.10;;
16820;SDS011;8527;49.740;6.604;2023-02-03T15:31:45;2.33;;;2.10;;
16820;SDS011;8527;49.740;6.604;2023-02-03T15:36:52;2.40;;;2.10;;
16820;SDS011;8527;49.740;6.604;2023-02-03T15:41:53;1.45;;;1.35;;
16820;SDS011;8527;49.740;6.604;2023-02-03T15:46:54;3.60;;;1.60;;
16820;SDS011;8527;49.740;6.604;2023-02-03T15:51:57;3.15;;;1.92;;
16820;SDS011;8527;49.740;6.604;2023-02-03T15:57:01;1.90;;;1.80;;
16820;SDS011;8527;49.740;6.604;2023-02-03T16:02:06;2.13;;;1.90;;
16820;SDS011;8527;49.740;6.604;2023-02-03T16:07:17;2.75;;;1.85;;
16820;SDS011;8527;49.740;6.604;2023-02-03T16:12:21;2.80;;;1.67;;
16820;SDS011;8527;49.740;6.604;2023-02-03T16:17:27;3.28;;;2.20;;
16820;SDS011;8527;49.740;6.604;2023-02-03T16:22:37;6.15;;;3.40;;
16820;SDS011;8527;49.740;6.604;2023-02-03T16:27:37;5.85;;;2.80;;
16820;SDS011;8527;49.740;6.604;2023-02-03T16:32:35;4.22;;;2.50;;
16820;SDS011;8527;49.740;6.604;2023-02-03T16:37:49;3.58;;;2.40;;
16820;SDS011;8527;49.740;6.604;2023-02-03T16:42:59;4.18;;;2.90;;
16820;SDS011;8527;49.740;6.604;2023-02-03T16:48:11;5.25;;;3.63;;
16820;SDS011;8527;49.740;6.604;2023-02-03T16:53:28;6.57;;;3.95;;
16820;SDS011;8527;49.740;6.604;2023-02-03T16:58:27;2.80;;;2.47;;
16820;SDS011;8527;49.740;6.604;2023-02-03T17:03:29;5.07;;;2.88;;
16820;SDS011;8527;49.740;6.604;2023-02-03T17:08:32;5.80;;;2.55;;
16820;SDS011;8527;49.740;6.604;2023-02-03T17:13:31;3.25;;;2.55;;
16820;SDS011;8527;49.740;6.604;2023-02-03T17:18:31;4.68;;;2.70;;
16820;SDS011;8527;49.740;6.604;2023-02-03T17:23:32;2.80;;;2.42;;
16820;SDS011;8527;49.740;6.604;2023-02-03T17:28:31;3.58;;;3.15;;
16820;SDS011;8527;49.740;6.604;2023-02-03T17:33:31;3.30;;;2.45;;
16820;SDS011;8527;49.740;6.604;2023-02-03T17:38:34;4.25;;;2.60;;
16820;SDS011;8527;49.740;6.604;2023-02-03T17:43:37;3.72;;;3.03;;
16820;SDS011;8527;49.740;6.604;2023-02-03T17:48:35;4.47;;;3.35;;
16820;SDS011;8527;49.740;6.604;2023-02-03T17:53:39;4.90;;;2.50;;
16820;SDS011;8527;49.740;6.604;2023-02-03T17:58:41;2.53;;;2.20;;
16820;SDS011;8527;49.740;6.604;2023-02-03T18:03:39;3.70;;;2.80;;
16820;SDS011;8527;49.740;6.604;2023-02-03T18:08:40;3.30;;;2.55;;
16820;SDS011;8527;49.740;6.604;2023-02-03T18:13:40;3.97;;;2.70;;
16820;SDS011;8527;49.740;6.604;2023-02-03T18:18:39;3.17;;;2.50;;
16820;SDS011;8527;49.740;6.604;2023-02-03T18:23:44;3.25;;;2.60;;
16820;SDS011;8527;49.740;6.604;2023-02-03T18:28:43;3.78;;;2.30;;
16820;SDS011;8527;49.740;6.604;2023-02-03T18:33:43;4.13;;;2.75;;
16820;SDS011;8527;49.740;6.604;2023-02-03T18:38:48;4.20;;;3.10;;
16820;SDS011;8527;49.740;6.604;2023-02-03T18:43:46;3.47;;;3.00;;
16820;SDS011;8527;49.740;6.604;2023-02-03T18:48:47;5.57;;;3.50;;
16820;SDS011;8527;49.740;6.604;2023-02-03T18:53:49;3.80;;;3.40;;
16820;SDS011;8527;49.740;6.604;2023-02-03T18:58:48;3.55;;;2.92;;
16820;SDS011;8527;49.740;6.604;2023-02-03T19:03:47;3.90;;;3.08;;
16820;SDS011;8527;49.740;6.604;2023-02-03T19:08:48;4.50;;;3.20;;
16820;SDS011;8527;49.740;6.604;2023-02-03T19:13:47;5.53;;;3.30;;
16820;SDS011;8527;49.740;6.604;2023-02-03T19:18:48;3.95;;;3.38;;
16820;SDS011;8527;49.740;6.604;2023-02-03T19:23:50;5.53;;;3.63;;
16820;SDS011;8527;49.740;6.604;2023-02-03T19:28:51;6.03;;;3.42;;
16820;SDS011;8527;49.740;6.604;2023-02-03T19:33:55;7.03;;;3.95;;
16820;SDS011;8527;49.740;6.604;2023-02-03T19:38:57;12.98;;;6.63;;
16820;SDS011;8527;49.740;6.604;2023-02-03T19:43:55;8.02;;;4.85;;
16820;SDS011;8527;49.740;6.604;2023-02-03T19:48:59;12.77;;;6.32;;
16820;SDS011;8527;49.740;6.604;2023-02-03T19:54:03;12.10;;;6.00;;
16820;SDS011;8527;49.740;6.604;2023-02-03T19:59:01;16.80;;;10.23;;
16820;SDS011;8527;49.740;6.604;2023-02-03T20:04:00;8.63;;;5.57;;
16820;SDS011;8527;49.740;6.604;2023-02-03T20:08:58;11.65;;;5.45;;
16820;SDS011;8527;49.740;6.604;2023-02-03T20:14:00;5.32;;;3.88;;
16820;SDS011;8527;49.740;6.604;2023-02-03T20:18:59;11.68;;;6.53;;
16820;SDS011;8527;49.740;6.604;2023-02-03T20:23:58;9.95;;;5.07;;
16820;SDS011;8527;49.740;6.604;2023-02-03T20:28:56;9.77;;;5.78;;
16820;SDS011;8527;49.740;6.604;2023-02-03T20:33:57;11.40;;;5.40;;
16820;SDS011;8527;49.740;6.604;2023-02-03T20:38:56;9.25;;;5.82;;
16820;SDS011;8527;49.740;6.604;2023-02-03T20:43:54;10.68;;;6.80;;
16820;SDS011;8527;49.740;6.604;2023-02-03T20:48:53;14.10;;;7.70;;
16820;SDS011;8527;49.740;6.604;2023-02-03T20:53:54;7.68;;;5.25;;
16820;SDS011;8527;49.740;6.604;2023-02-03T20:58:54;11.98;;;6.03;;
16820;SDS011;8527;49.740;6.604;2023-02-03T21:03:52;8.15;;;5.38;;
16820;SDS011;8527;49.740;6.604;2023-02-03T21:09:11;11.20;;;6.20;;
16820;SDS011;8527;49.740;6.604;2023-02-03T21:14:18;11.48;;;7.28;;
16820;SDS011;8527;49.740;6.604;2023-02-03T21:19:26;8.38;;;6.45;;
16820;SDS011;8527;49.740;6.604;2023-02-03T21:24:30;10.07;;;6.60;;
16820;SDS011;8527;49.740;6.604;2023-02-03T21:29:31;13.93;;;7.05;;
16820;SDS011;8527;49.740;6.604;2023-02-03T21:34:31;13.25;;;6.63;;
16820;SDS011;8527;49.740;6.604;2023-02-03T21:39:34;11.75;;;6.93;;
16820;SDS011;8527;49.740;6.604;2023-02-03T21:44:33;13.15;;;6.70;;
16820;SDS011;8527;49.740;6.604;2023-02-03T21:49:35;12.07;;;6.97;;
16820;SDS011;8527;49.740;6.604;2023-02-03T21:54:37;12.07;;;6.75;;
16820;SDS011;8527;49.740;6.604;2023-02-03T21:59:38;13.10;;;7.18;;
16820;SDS011;8527;49.740;6.604;2023-02-03T22:04:40;17.02;;;9.13;;
16820;SDS011;8527;49.740;6.604;2023-02-03T22:09:42;14.68;;;8.02;;
16820;SDS011;8527;49.740;6.604;2023-02-03T22:14:44;11.82;;;6.88;;
16820;SDS011;8527;49.740;6.604;2023-02-03T22:19:46;13.00;;;8.05;;
16820;SDS011;8527;49.740;6.604;2023-02-03T22:24:50;13.57;;;7.32;;
16820;SDS011;8527;49.740;6.604;2023-02-03T22:29:48;15.07;;;7.30;;
16820;SDS011;8527;49.740;6.604;2023-02-03T22:34:50;15.80;;;6.95;;
16820;SDS011;8527;49.740;6.604;2023-02-03T22:39:51;12.80;;;7.40;;
16820;SDS011;8527;49.740;6.604;2023-02-03T22:44:49;16.50;;;7.75;;
16820;SDS011;8527;49.740;6.604;2023-02-03T22:49:47;12.23;;;7.13;;
16820;SDS011;8527;49.740;6.604;2023-02-03T22:54:54;14.50;;;7.30;;
16820;SDS011;8527;49.740;6.604;2023-02-03T22:59:52;13.82;;;6.80;;
16820;SDS011;8527;49.740;6.604;2023-02-03T23:04:51;14.23;;;6.68;;
16820;SDS011;8527;49.740;6.604;2023-02-03T23:09:58;10.80;;;6.72;;
16820;SDS011;8527;49.740;6.604;2023-02-03T23:14:59;12.30;;;6.55;;
16820;SDS011;8527;49.740;6.604;2023-02-03T23:19:57;14.38;;;6.72;;
16820;SDS011;8527;49.740;6.604;2023-02-03T23:25:01;16.45;;;7.50;;
16820;SDS011;8527;49.740;6.604;2023-02-03T23:29:59;15.48;;;7.43;;
16820;SDS011;8527;49.740;6.604;2023-02-03T23:35:03;14.75;;;7.22;;
16820;SDS011;8527;49.740;6.604;2023-02-03T23:40:19;11.63;;;6.43;;
16820;SDS011;8527;49.740;6.604;2023-02-03T23:45:20;12.73;;;6.93;;
16820;SDS011;8527;49.740;6.604;2023-02-03T23:50:28;12.07;;;6.85;;
16820;SDS011;8527;49.740;6.604;2023-02-03T23:55:39;11.93;;;6.30;;
